createdAt,value
2023-03-03T00:03:55.956Z,87
2023-03-03T00:07:55.738Z,87
2023-03-03T00:09:53.207Z,87
2023-03-03T00:11:53.522Z,87
2023-03-03T00:17:55.091Z,87
2023-03-03T00:19:56.031Z,87
2023-03-03T00:21:55.782Z,87
2023-03-03T00:23:53.286Z,87
2023-03-03T00:27:56.416Z,87
2023-03-03T00:29:53.641Z,87
2023-03-03T00:31:55.917Z,87
2023-03-03T00:33:56.099Z,87
2023-03-03T00:35:55.906Z,87
2023-03-03T00:37:56.140Z,87
2023-03-03T00:41:53.265Z,87
2023-03-03T00:43:56.386Z,87
2023-03-03T00:47:53.230Z,87
2023-03-03T00:49:55.696Z,87
2023-03-03T00:53:53.018Z,87
2023-03-03T00:55:55.726Z,87
2023-03-03T00:59:53.277Z,87
2023-03-03T01:01:56.040Z,87
2023-03-03T01:05:56.197Z,87
2023-03-03T01:07:55.315Z,87
2023-03-03T01:11:55.913Z,87
2023-03-03T01:13:56.126Z,87
2023-03-03T01:15:56.018Z,87
2023-03-03T01:17:53.533Z,87
2023-03-03T01:19:54.994Z,87
2023-03-03T01:21:56.245Z,87
2023-03-03T01:23:54.930Z,87
2023-03-03T01:25:56.067Z,88
2023-03-03T01:27:56.440Z,88
2023-03-03T01:29:56.181Z,88
2023-03-03T01:31:56.078Z,88
2023-03-03T01:35:50.494Z,87
2023-03-03T01:39:55.934Z,87
2023-03-03T01:41:53.569Z,88
2023-03-03T01:43:55.707Z,87
2023-03-03T01:47:59.556Z,88
2023-03-03T01:51:55.687Z,87
2023-03-03T01:53:56.170Z,87
2023-03-03T01:59:54.159Z,88
2023-03-03T02:03:55.938Z,88
2023-03-03T02:05:54.024Z,88
2023-03-03T02:09:56.494Z,88
2023-03-03T02:11:54.118Z,88
2023-03-03T02:17:53.275Z,88
2023-03-03T02:19:56.842Z,88
2023-03-03T02:23:56.391Z,88
2023-03-03T02:25:59.142Z,88
2023-03-03T02:29:53.362Z,88
2023-03-03T02:31:56.812Z,88
2023-03-03T02:35:56.404Z,88
2023-03-03T02:39:56.728Z,88
2023-03-03T02:41:56.555Z,88
2023-03-03T02:43:56.682Z,88
2023-03-03T02:47:54.397Z,88
2023-03-03T02:53:56.158Z,88
2023-03-03T02:55:56.658Z,88
2023-03-03T02:59:56.320Z,88
2023-03-03T03:01:56.123Z,88
2023-03-03T03:03:56.685Z,89
2023-03-03T03:05:55.583Z,89
2023-03-03T03:09:53.422Z,89
2023-03-03T03:11:56.336Z,88
2023-03-03T03:15:56.735Z,88
2023-03-03T03:17:53.287Z,88
2023-03-03T03:23:54.915Z,89
2023-03-03T03:25:56.612Z,88
2023-03-03T03:29:53.286Z,88
2023-03-03T03:35:53.399Z,88
2023-03-03T03:39:56.848Z,88
2023-03-03T03:41:55.095Z,87
2023-03-03T03:43:56.666Z,87
2023-03-03T03:45:56.660Z,87
2023-03-03T03:47:56.147Z,87
2023-03-03T03:49:54.518Z,87
2023-03-03T03:53:51.445Z,87
2023-03-03T03:55:53.378Z,87
2023-03-03T03:57:56.739Z,87
2023-03-03T03:59:53.240Z,87
2023-03-03T04:01:56.827Z,87
2023-03-03T04:05:53.437Z,87
2023-03-03T04:09:56.798Z,87
2023-03-03T04:11:55.986Z,87
2023-03-03T04:15:55.057Z,87
2023-03-03T04:17:56.646Z,87
2023-03-03T04:23:53.455Z,87
2023-03-03T04:25:56.658Z,87
2023-03-03T04:27:56.640Z,87
2023-03-03T04:29:53.423Z,87
2023-03-03T04:33:56.796Z,87
2023-03-03T04:35:54.942Z,87
2023-03-03T04:39:54.559Z,87
2023-03-03T04:41:53.109Z,87
2023-03-03T04:43:56.776Z,87
2023-03-03T04:45:55.256Z,87
2023-03-03T04:47:56.221Z,87
2023-03-03T04:49:51.849Z,87
2023-03-03T04:53:56.305Z,87
2023-03-03T04:59:56.284Z,87
2023-03-03T05:01:56.821Z,87
2023-03-03T05:03:59.648Z,87
2023-03-03T05:05:56.903Z,87
2023-03-03T05:11:53.438Z,87
2023-03-03T05:15:53.389Z,87
2023-03-03T05:17:53.328Z,87
2023-03-03T05:19:54.381Z,87
2023-03-03T05:21:55.410Z,87
2023-03-03T05:23:53.349Z,87
2023-03-03T05:29:53.394Z,87
2023-03-03T05:33:56.155Z,86
2023-03-03T05:35:51.465Z,87
2023-03-03T05:41:53.325Z,87
2023-03-03T05:43:56.809Z,87
2023-03-03T05:47:54.004Z,87
2023-03-03T05:49:56.908Z,87
2023-03-03T05:53:55.360Z,87
2023-03-03T05:55:55.614Z,87
2023-03-03T05:57:56.643Z,87
2023-03-03T05:59:57.413Z,87
2023-03-03T06:05:56.544Z,87
2023-03-03T06:11:53.641Z,87
2023-03-03T06:13:56.772Z,87
2023-03-03T06:17:56.038Z,86
2023-03-03T06:19:56.739Z,86
2023-03-03T06:23:53.461Z,87
2023-03-03T06:25:55.689Z,87
2023-03-03T06:27:55.247Z,87
2023-03-03T06:29:56.855Z,86
2023-03-03T06:35:52.041Z,87
2023-03-03T06:37:56.519Z,87
2023-03-03T06:41:54.487Z,87
2023-03-03T06:47:51.316Z,87
2023-03-03T06:53:53.350Z,87
2023-03-03T06:55:56.301Z,87
2023-03-03T06:59:55.056Z,86
2023-03-03T07:05:53.299Z,86
2023-03-03T07:09:55.609Z,87
2023-03-03T07:11:52.884Z,86
2023-03-03T07:15:56.785Z,86
2023-03-03T07:17:56.280Z,86
2023-03-03T07:19:56.798Z,86
2023-03-03T07:23:56.876Z,86
2023-03-03T07:27:55.529Z,86
2023-03-03T07:35:16.044Z,86
2023-03-03T07:37:18.625Z,86
2023-03-03T07:39:17.045Z,86
2023-03-03T07:41:17.493Z,86
2023-03-03T07:43:18.599Z,86
2023-03-03T07:45:15.489Z,86
2023-03-03T07:49:15.385Z,86
2023-03-03T07:51:17.688Z,85
2023-03-03T07:53:16.499Z,86
2023-03-03T07:55:18.577Z,86
2023-03-03T07:57:16.464Z,86
2023-03-03T07:59:17.452Z,85
2023-03-03T08:01:15.600Z,85
2023-03-03T08:03:16.103Z,85
2023-03-03T08:05:15.579Z,84
2023-03-03T08:07:15.690Z,84
2023-03-03T08:09:18.447Z,83
2023-03-03T08:11:15.680Z,82
2023-03-03T08:13:15.901Z,82
2023-03-03T08:15:22.290Z,82
2023-03-03T08:17:15.650Z,82
2023-03-03T08:19:12.834Z,81
2023-03-03T08:21:15.051Z,79
2023-03-03T08:23:12.901Z,80
2023-03-03T08:25:15.659Z,80
2023-03-03T08:27:15.720Z,80
2023-03-03T08:29:15.695Z,80
2023-03-03T08:31:27.926Z,80
2023-03-03T08:33:15.588Z,80
2023-03-03T08:35:15.201Z,80
2023-03-03T08:37:16.096Z,80
2023-03-03T08:39:15.660Z,78
2023-03-03T08:41:15.960Z,78
2023-03-03T08:43:17.466Z,78
2023-03-03T08:45:15.644Z,78
2023-03-03T08:47:17.427Z,79
2023-03-03T08:49:15.504Z,78
2023-03-03T08:51:17.648Z,79
2023-03-03T08:53:17.064Z,79
2023-03-03T08:55:15.835Z,79
2023-03-03T08:57:18.808Z,79
2023-03-03T08:59:15.895Z,79
2023-03-03T09:01:17.864Z,78
2023-03-03T09:03:15.677Z,78
2023-03-03T09:05:15.722Z,78
2023-03-03T09:07:17.062Z,78
2023-03-03T09:09:18.882Z,78
2023-03-03T09:11:18.831Z,78
2023-03-03T09:13:17.820Z,78
2023-03-03T09:15:18.461Z,78
2023-03-03T09:17:22.285Z,78
2023-03-03T09:19:15.682Z,78
2023-03-03T09:21:18.932Z,78
2023-03-03T09:23:15.749Z,78
2023-03-03T09:25:15.687Z,78
2023-03-03T09:27:18.895Z,78
2023-03-03T09:29:19.026Z,77
2023-03-03T09:31:17.376Z,77
2023-03-03T09:33:15.043Z,77
2023-03-03T09:35:16.176Z,76
2023-03-03T09:37:15.696Z,75
2023-03-03T09:39:15.655Z,75
2023-03-03T09:41:16.492Z,72
2023-03-03T09:43:19.975Z,70
2023-03-03T09:45:16.949Z,70
2023-03-03T09:47:15.663Z,70
2023-03-03T09:49:16.716Z,70
2023-03-03T09:51:16.850Z,69
2023-03-03T09:53:17.469Z,68
2023-03-03T09:55:16.569Z,69
2023-03-03T09:57:18.640Z,69
2023-03-03T09:59:15.665Z,68
2023-03-03T10:01:17.804Z,68
2023-03-03T10:03:15.757Z,68
2023-03-03T10:05:15.216Z,68
2023-03-03T10:07:15.738Z,67
2023-03-03T10:09:16.458Z,67
2023-03-03T10:11:17.783Z,66
2023-03-03T10:13:15.709Z,66
2023-03-03T10:15:17.101Z,66
2023-03-03T10:17:15.677Z,67
2023-03-03T10:19:13.950Z,67
2023-03-03T10:21:16.098Z,67
2023-03-03T10:23:15.694Z,65
2023-03-03T10:25:15.670Z,65
2023-03-03T10:27:14.572Z,66
2023-03-03T10:29:22.029Z,65
2023-03-03T10:31:17.966Z,65
2023-03-03T10:33:18.889Z,65
2023-03-03T10:35:18.052Z,65
2023-03-03T10:37:15.728Z,64
2023-03-03T10:39:12.480Z,65
2023-03-03T10:41:15.575Z,65
2023-03-03T10:43:29.656Z,64
2023-03-03T10:45:17.879Z,64
2023-03-03T10:47:17.857Z,65
2023-03-03T10:49:16.151Z,65
2023-03-03T10:51:17.801Z,65
2023-03-03T10:53:16.434Z,64
2023-03-03T10:55:16.526Z,64
2023-03-03T10:57:18.650Z,64
2023-03-03T10:59:19.635Z,64
2023-03-03T11:01:16.932Z,63
2023-03-03T11:03:19.905Z,63
2023-03-03T11:05:19.619Z,63
2023-03-03T11:07:16.853Z,63
2023-03-03T11:09:18.314Z,62
2023-03-03T11:11:16.539Z,62
2023-03-03T11:13:15.997Z,62
2023-03-03T11:15:19.611Z,63
2023-03-03T11:17:17.742Z,62
2023-03-03T11:19:16.046Z,62
2023-03-03T11:23:16.491Z,62
2023-03-03T11:25:17.237Z,62
2023-03-03T11:27:17.643Z,62
2023-03-03T11:29:16.605Z,62
2023-03-03T11:31:15.954Z,63
2023-03-03T11:33:19.396Z,62
2023-03-03T11:35:17.414Z,62
2023-03-03T11:37:17.909Z,62
2023-03-03T11:39:16.505Z,62
2023-03-03T11:41:16.077Z,63
2023-03-03T11:43:30.045Z,62
2023-03-03T11:45:16.510Z,62
2023-03-03T11:47:19.390Z,62
2023-03-03T11:49:16.917Z,62
2023-03-03T11:51:16.527Z,62
2023-03-03T11:53:17.388Z,63
2023-03-03T11:55:16.516Z,63
2023-03-03T11:57:17.811Z,62
2023-03-03T11:59:17.376Z,62
2023-03-03T12:01:16.490Z,63
2023-03-03T12:03:16.967Z,62
2023-03-03T12:05:17.075Z,62
2023-03-03T12:07:19.253Z,62
2023-03-03T12:11:16.518Z,62
2023-03-03T12:13:16.925Z,62
2023-03-03T12:15:19.418Z,63
2023-03-03T12:17:17.411Z,62
2023-03-03T12:19:16.930Z,63
2023-03-03T12:21:17.139Z,63
2023-03-03T12:23:17.803Z,63
2023-03-03T12:25:18.213Z,63
2023-03-03T12:27:16.534Z,63
2023-03-03T12:29:17.004Z,63
2023-03-03T12:31:19.661Z,63
2023-03-03T12:35:17.302Z,63
2023-03-03T12:37:19.645Z,63
2023-03-03T12:39:28.824Z,63
2023-03-03T12:41:14.682Z,62
2023-03-03T12:43:16.581Z,62
2023-03-03T12:45:14.697Z,62
2023-03-03T12:47:17.433Z,62
2023-03-03T12:49:21.251Z,61
2023-03-03T12:51:16.590Z,62
2023-03-03T12:53:17.750Z,62
2023-03-03T12:55:19.655Z,62
2023-03-03T12:57:18.200Z,62
2023-03-03T12:59:18.291Z,62
2023-03-03T13:01:19.950Z,62
2023-03-03T13:03:17.873Z,62
2023-03-03T13:05:15.027Z,62
2023-03-03T13:07:17.463Z,62
2023-03-03T13:09:16.843Z,62
2023-03-03T13:11:17.397Z,62
2023-03-03T13:13:17.861Z,62
2023-03-03T13:15:18.329Z,62
2023-03-03T13:17:20.139Z,62
2023-03-03T13:19:18.997Z,62
2023-03-03T13:21:17.396Z,62
2023-03-03T13:23:19.695Z,61
2023-03-03T13:25:19.776Z,62
2023-03-03T13:27:18.340Z,62
2023-03-03T13:29:18.232Z,62
2023-03-03T13:31:16.827Z,62
2023-03-03T13:33:16.827Z,62
2023-03-03T13:35:17.678Z,62
2023-03-03T13:37:19.440Z,62
2023-03-03T13:39:17.877Z,62
2023-03-03T13:41:17.456Z,62
2023-03-03T13:43:16.512Z,62
2023-03-03T13:45:17.891Z,62
2023-03-03T13:47:17.471Z,62
2023-03-03T13:49:14.639Z,62
2023-03-03T13:51:19.649Z,62
2023-03-03T13:53:16.145Z,61
2023-03-03T13:55:14.604Z,61
2023-03-03T13:57:17.381Z,61
2023-03-03T13:59:39.603Z,62
2023-03-03T14:01:37.649Z,62
2023-03-03T14:03:40.320Z,62
2023-03-03T14:05:39.921Z,62
2023-03-03T14:07:40.408Z,62
2023-03-03T14:09:39.468Z,62
2023-03-03T14:11:37.953Z,62
2023-03-03T14:13:39.591Z,62
2023-03-03T14:15:37.425Z,62
2023-03-03T14:17:37.606Z,62
2023-03-03T14:19:38.556Z,61
2023-03-03T14:21:37.584Z,61
2023-03-03T14:23:34.286Z,61
2023-03-03T14:25:37.367Z,61
2023-03-03T14:27:38.358Z,61
2023-03-03T14:29:39.087Z,61
2023-03-03T14:31:37.568Z,61
2023-03-03T14:33:39.110Z,61
2023-03-03T14:35:39.016Z,61
2023-03-03T14:37:42.345Z,61
2023-03-03T14:39:39.085Z,61
2023-03-03T14:41:40.987Z,61
2023-03-03T14:43:37.630Z,61
2023-03-03T14:45:40.803Z,61
2023-03-03T14:47:37.554Z,61
2023-03-03T14:49:38.405Z,61
2023-03-03T14:51:36.090Z,61
2023-03-03T14:53:37.562Z,61
2023-03-03T14:55:39.474Z,62
2023-03-03T14:57:37.520Z,62
2023-03-03T14:59:37.769Z,62
2023-03-03T15:01:40.150Z,62
2023-03-03T15:03:41.099Z,62
2023-03-03T15:05:37.498Z,62
2023-03-03T15:07:37.399Z,62
2023-03-03T15:09:37.603Z,63
2023-03-03T15:11:37.202Z,63
2023-03-03T15:13:37.630Z,63
2023-03-03T15:15:37.647Z,63
2023-03-03T15:17:37.587Z,63
2023-03-03T15:19:37.684Z,63
2023-03-03T15:21:39.387Z,63
2023-03-03T15:23:39.318Z,63
2023-03-03T15:27:39.319Z,62
2023-03-03T15:29:37.618Z,63
2023-03-03T15:31:41.230Z,63
2023-03-03T15:33:40.816Z,63
2023-03-03T15:35:39.312Z,63
2023-03-03T15:37:39.531Z,63
2023-03-03T15:39:37.869Z,63
2023-03-03T15:41:40.048Z,63
2023-03-03T15:43:37.690Z,63
2023-03-03T15:45:37.554Z,63
2023-03-03T15:47:36.340Z,63
2023-03-03T15:49:38.434Z,63
2023-03-03T15:51:37.577Z,63
2023-03-03T15:53:39.155Z,63
2023-03-03T15:55:39.014Z,62
2023-03-03T15:57:37.092Z,63
2023-03-03T15:59:41.110Z,63
2023-03-03T16:01:40.811Z,64
2023-03-03T16:03:37.730Z,65
2023-03-03T16:05:40.847Z,65
2023-03-03T16:07:38.694Z,65
2023-03-03T16:09:37.526Z,65
2023-03-03T16:11:37.619Z,65
2023-03-03T16:13:39.720Z,65
2023-03-03T16:15:37.553Z,65
2023-03-03T16:17:37.551Z,65
2023-03-03T16:19:39.434Z,65
2023-03-03T16:21:38.930Z,65
2023-03-03T16:23:36.941Z,65
2023-03-03T16:25:38.508Z,65
2023-03-03T16:27:39.228Z,65
2023-03-03T16:29:38.088Z,65
2023-03-03T16:31:39.164Z,66
2023-03-03T16:33:37.649Z,66
2023-03-03T16:35:39.652Z,66
2023-03-03T16:37:38.109Z,66
2023-03-03T16:39:38.788Z,66
2023-03-03T16:41:39.837Z,67
2023-03-03T16:43:36.243Z,69
2023-03-03T16:45:38.179Z,68
2023-03-03T16:47:39.174Z,67
2023-03-03T16:49:40.618Z,67
2023-03-03T16:51:39.341Z,67
2023-03-03T16:53:39.257Z,68
2023-03-03T16:55:37.682Z,68
2023-03-03T16:57:40.976Z,69
2023-03-03T16:59:40.908Z,70
2023-03-03T17:01:39.375Z,70
2023-03-03T17:03:37.998Z,70
2023-03-03T17:05:40.772Z,70
2023-03-03T17:07:40.106Z,70
2023-03-03T17:09:40.850Z,71
2023-03-03T17:11:37.736Z,71
2023-03-03T17:13:41.229Z,70
2023-03-03T17:15:37.842Z,71
2023-03-03T17:17:40.864Z,71
2023-03-03T17:19:39.254Z,71
2023-03-03T17:21:39.249Z,71
2023-03-03T17:23:40.830Z,71
2023-03-03T17:25:37.606Z,71
2023-03-03T17:27:38.051Z,72
2023-03-03T17:29:38.759Z,72
2023-03-03T17:31:39.272Z,72
2023-03-03T17:33:40.911Z,72
2023-03-03T17:35:40.922Z,72
2023-03-03T17:37:37.619Z,73
2023-03-03T17:39:41.123Z,74
2023-03-03T17:41:37.901Z,74
2023-03-03T17:43:37.666Z,73
2023-03-03T17:45:38.721Z,74
2023-03-03T17:47:39.613Z,74
2023-03-03T17:49:40.795Z,74
2023-03-03T17:51:39.479Z,75
2023-03-03T17:53:37.520Z,76
2023-03-03T17:55:37.442Z,76
2023-03-03T17:57:37.565Z,76
2023-03-03T17:59:38.999Z,77
2023-03-03T18:01:40.348Z,77
2023-03-03T18:03:38.951Z,76
2023-03-03T18:05:38.242Z,77
2023-03-03T18:07:41.248Z,77
2023-03-03T18:09:43.923Z,78
2023-03-03T18:11:37.776Z,78
2023-03-03T18:13:39.199Z,78
2023-03-03T18:15:39.584Z,77
2023-03-03T18:17:37.081Z,78
2023-03-03T18:19:34.870Z,78
2023-03-03T18:21:40.790Z,78
2023-03-03T18:23:44.190Z,78
2023-03-03T18:25:37.579Z,78
2023-03-03T18:27:37.702Z,78
2023-03-03T18:29:38.409Z,77
2023-03-03T18:31:39.592Z,78
2023-03-03T18:33:37.691Z,78
2023-03-03T18:35:34.417Z,78
2023-03-03T18:37:37.193Z,78
2023-03-03T18:39:41.450Z,78
2023-03-03T18:41:40.808Z,78
2023-03-03T18:43:39.810Z,78
2023-03-03T18:45:37.896Z,79
2023-03-03T18:47:38.608Z,79
2023-03-03T18:49:37.603Z,79
2023-03-03T18:51:44.054Z,79
2023-03-03T18:53:37.699Z,79
2023-03-03T18:55:37.834Z,79
2023-03-03T18:57:37.663Z,80
2023-03-03T18:59:38.413Z,80
2023-03-03T19:01:37.984Z,78
2023-03-03T19:03:34.502Z,78
2023-03-03T19:05:39.450Z,78
2023-03-03T19:07:36.906Z,78
2023-03-03T19:09:37.602Z,78
2023-03-03T19:11:37.571Z,78
2023-03-03T19:13:37.637Z,78
2023-03-03T19:15:37.748Z,78
2023-03-03T19:17:37.687Z,78
2023-03-03T19:19:40.847Z,78
2023-03-03T19:21:37.602Z,77
2023-03-03T19:23:39.151Z,77
2023-03-03T19:25:40.329Z,77
2023-03-03T19:27:37.026Z,77
2023-03-03T19:29:38.346Z,77
2023-03-03T19:31:37.457Z,78
2023-03-03T19:33:36.127Z,77
2023-03-03T19:35:37.877Z,77
2023-03-03T19:37:36.474Z,77
2023-03-03T19:39:37.583Z,77
2023-03-03T19:41:40.948Z,77
2023-03-03T19:43:37.734Z,78
2023-03-03T19:45:37.673Z,78
2023-03-03T19:47:37.281Z,78
2023-03-03T19:49:37.672Z,78
2023-03-03T19:51:37.428Z,77
2023-03-03T19:53:37.673Z,78
2023-03-03T19:55:39.377Z,78
2023-03-03T19:57:40.898Z,78
2023-03-03T19:59:38.163Z,78
2023-03-03T20:01:37.661Z,78
2023-03-03T20:03:37.756Z,78
2023-03-03T20:05:38.319Z,78
2023-03-03T20:07:37.771Z,78
2023-03-03T20:09:35.725Z,78
2023-03-03T20:11:39.118Z,79
2023-03-03T20:13:40.459Z,79
2023-03-03T20:15:37.590Z,79
2023-03-03T20:17:38.032Z,79
2023-03-03T20:19:39.820Z,79
2023-03-03T20:21:39.219Z,80
2023-03-03T20:23:38.106Z,80
2023-03-03T20:25:38.219Z,80
2023-03-03T20:27:40.010Z,80
2023-03-03T20:29:40.401Z,80
2023-03-03T20:31:39.938Z,80
2023-03-03T20:33:37.688Z,80
2023-03-03T20:35:38.416Z,81
2023-03-03T20:37:39.207Z,81
2023-03-03T20:39:37.808Z,81
2023-03-03T20:41:37.723Z,81
2023-03-03T20:43:37.737Z,81
2023-03-03T20:45:38.783Z,81
2023-03-03T20:47:37.960Z,81
2023-03-03T20:49:37.649Z,81
2023-03-03T20:51:37.859Z,80
2023-03-03T20:53:39.943Z,80
2023-03-03T20:55:40.022Z,80
2023-03-03T20:57:38.016Z,80
2023-03-03T20:59:40.267Z,80
2023-03-03T21:01:39.276Z,80
2023-03-03T21:03:37.966Z,80
2023-03-03T21:05:37.635Z,80
2023-03-03T21:07:39.163Z,80
2023-03-03T21:09:40.947Z,81
2023-03-03T21:11:37.841Z,81
2023-03-03T21:13:37.358Z,81
2023-03-03T21:15:37.797Z,80
2023-03-03T21:17:38.003Z,80
2023-03-03T21:19:38.861Z,80
2023-03-03T21:21:37.765Z,81
2023-03-03T21:23:37.700Z,81
2023-03-03T21:25:40.967Z,81
2023-03-03T21:27:37.602Z,81
2023-03-03T21:29:40.970Z,81
2023-03-03T21:31:38.738Z,81
2023-03-03T21:33:37.661Z,81
2023-03-03T21:35:38.603Z,81
2023-03-03T21:37:38.303Z,82
2023-03-03T21:39:41.035Z,82
2023-03-03T21:41:44.238Z,82
2023-03-03T21:43:39.581Z,82
2023-03-03T21:45:38.951Z,82
2023-03-03T21:47:39.621Z,82
2023-03-03T21:49:40.626Z,82
2023-03-03T21:51:41.017Z,83
2023-03-03T21:53:39.218Z,83
2023-03-03T21:55:38.531Z,83
2023-03-03T21:59:39.561Z,83
2023-03-03T22:01:38.416Z,83
2023-03-03T22:03:37.843Z,82
2023-03-03T22:05:37.657Z,82
2023-03-03T22:07:36.783Z,83
2023-03-03T22:09:37.635Z,83
2023-03-03T22:11:37.658Z,83
2023-03-03T22:13:34.328Z,83
2023-03-03T22:15:40.601Z,83
2023-03-03T22:17:40.528Z,83
2023-03-03T22:19:38.554Z,83
2023-03-03T22:21:39.993Z,83
2023-03-03T22:23:37.595Z,83
2023-03-03T22:25:39.387Z,83
2023-03-03T22:27:38.016Z,83
2023-03-03T22:29:37.700Z,82
2023-03-03T22:31:37.871Z,83
2023-03-03T22:33:40.919Z,83
2023-03-03T22:35:39.399Z,83
2023-03-03T22:37:37.753Z,83
2023-03-03T22:39:38.150Z,83
2023-03-03T22:41:40.760Z,83
2023-03-03T22:43:38.444Z,83
2023-03-03T22:45:37.553Z,83
2023-03-03T22:47:40.479Z,83
2023-03-03T22:49:41.014Z,83
2023-03-03T22:51:37.907Z,83
2023-03-03T22:53:38.059Z,83
2023-03-03T22:55:38.066Z,84
2023-03-03T22:57:36.457Z,83
2023-03-03T22:59:37.810Z,83
2023-03-03T23:01:37.646Z,83
2023-03-03T23:03:41.207Z,83
2023-03-03T23:05:41.205Z,83
2023-03-03T23:07:37.857Z,83
2023-03-03T23:09:37.756Z,83
2023-03-03T23:11:39.920Z,83
2023-03-03T23:13:37.714Z,83
2023-03-03T23:15:37.843Z,83
2023-03-03T23:17:39.295Z,83
2023-03-03T23:19:37.246Z,83
2023-03-03T23:21:37.738Z,83
2023-03-03T23:23:34.347Z,83
2023-03-03T23:25:41.373Z,83
2023-03-03T23:27:37.779Z,83
2023-03-03T23:29:38.720Z,84
2023-03-03T23:31:39.890Z,84
2023-03-03T23:33:40.894Z,84
2023-03-03T23:35:37.752Z,84
2023-03-03T23:37:35.739Z,83
2023-03-03T23:39:37.729Z,83
2023-03-03T23:41:38.176Z,83
2023-03-03T23:43:40.904Z,83
2023-03-03T23:45:42.482Z,84
2023-03-03T23:47:37.644Z,84
2023-03-03T23:49:42.197Z,84
2023-03-03T23:51:41.199Z,84
2023-03-03T23:53:37.772Z,84
2023-03-03T23:55:39.475Z,84
2023-03-03T23:57:39.266Z,84
2023-03-03T23:59:34.897Z,84
